Terminal Aerodrome Forecast
Issued by NWS Wakefield, VA

Home | Current Version | Previous Version | Text Only | Print | Product List | Glossary On
Versions: 1 2 3 4 5 6 7 8 9 10 11 12 13 14 15
367
FTUS41 KAKQ 242320
TAFORF
TAF
KORF 242320Z 2500/2524 23006KT P6SM BKN050
     FM250600 VRB03KT P6SM SCT080
     FM251400 35007KT P6SM SCT200=

USA.gov is the U.S. government's official web portal to all federal, state and local government web resources and services.